Etusivu
METAR-TAF:

METAR-TAF

Lentoasemat :

Nioro du Sahel, Mali

Leveyspiiri: 15-14N, Pituuspiiri: 009-21W, korkeus merenpinnasta: 235 m

Tämänhetkinen sää

Tämä raportti tehtiin 1 tunti ja 46 minuuttia sitten, kello 21.00 UTC
Tuuli 4 kn idästä
Lämpötila 29°C
Kosteus 11%
Ilmanpaine 1014 hPa
Näkyvyys: 9000 m

METAR: GANR 282100Z 08004KT 9000 NSC 29/M05 Q1014

Aika: 22:46 (22:46 UTC)


TAF: puuttuu

Säähavainnot ja -ennusteet yli 4000 lentoasemalta (METAR- ja TAF-raportit).

Käytössä olevat sääasemat on merkitty karttaan keltaisilla ja punaisilla pisteillä.

Aseta hiiri pisteen päälle nähdäksesi sääaseman nimen.

Klikkaa sitten nähdäksesi säähavainnot ja -ennusteet.

Kartan vaihtaminen: klikkaa mustalla rastilla varustettuja vihreitä pisteitä, niin voit zoomata sisään; viivalla varustettua vihreää pistettä, niin voit zoomata ulos tai vihreitä nuolia, niin pääset viereisille kartoille.


METAR-TAF: